createdAt,value
2023-01-10T05:17:41.320Z,3.00
2023-01-10T05:20:09.861Z,2.70
2023-01-10T05:22:36.338Z,2.68
2023-01-10T05:25:02.880Z,2.87
2023-01-10T05:27:29.400Z,3.16
2023-01-10T05:29:56.035Z,3.17
2023-01-10T05:32:22.799Z,3.13
2023-01-10T05:34:49.379Z,3.11
2023-01-10T05:37:15.973Z,3.15
2023-01-10T05:39:43.547Z,3.04
2023-01-10T05:42:10.120Z,3.08
2023-01-10T05:44:36.576Z,2.89
2023-01-10T05:47:03.168Z,3.12
2023-01-10T05:49:34.361Z,3.15
2023-01-10T05:52:00.897Z,3.16
2023-01-10T05:54:29.639Z,2.94
2023-01-10T05:56:57.096Z,2.89
2023-01-10T05:59:30.889Z,3.00
2023-01-10T06:01:57.575Z,3.01
2023-01-10T06:04:28.156Z,2.83
2023-01-10T06:06:54.650Z,2.52
2023-01-10T06:09:21.192Z,2.71
2023-01-10T06:11:47.734Z,2.66
2023-01-10T06:14:19.003Z,2.73
2023-01-10T06:16:46.821Z,2.94
2023-01-10T06:19:13.559Z,2.44
2023-01-10T06:21:40.707Z,2.26
2023-01-10T06:24:07.724Z,2.67
2023-01-10T06:26:34.564Z,2.52
2023-01-10T06:29:01.278Z,2.68
2023-01-10T06:31:54.928Z,2.54
2023-01-10T06:34:21.537Z,2.55
2023-01-10T06:36:48.306Z,2.92
2023-01-10T06:39:14.926Z,3.34
2023-01-10T06:41:41.440Z,2.98
2023-01-10T06:44:08.123Z,3.16
2023-01-10T06:46:44.874Z,3.20
2023-01-10T06:49:12.317Z,3.08
2023-01-10T06:51:45.060Z,2.82
2023-01-10T06:54:23.790Z,2.99
2023-01-10T06:56:53.001Z,3.24
2023-01-10T06:59:20.310Z,3.60
2023-01-10T07:01:50.063Z,3.40
2023-01-10T07:04:21.153Z,3.33
2023-01-10T07:06:49.308Z,3.28
2023-01-10T07:09:16.043Z,3.29
2023-01-10T07:11:46.507Z,3.18
2023-01-10T07:14:13.196Z,3.18
2023-01-10T07:16:56.165Z,3.23
2023-01-10T07:19:44.443Z,3.40
2023-01-10T07:23:15.652Z,3.86
2023-01-10T07:25:53.178Z,3.67
2023-01-10T07:28:40.028Z,3.19
2023-01-10T07:31:11.570Z,3.68
2023-01-10T07:34:03.359Z,3.46
2023-01-10T07:36:42.914Z,3.56
2023-01-10T07:39:22.057Z,3.94
2023-01-10T07:42:19.342Z,3.31
2023-01-10T07:45:09.156Z,3.75
2023-01-10T07:48:15.144Z,3.69
2023-01-10T07:51:32.767Z,3.80
2023-01-10T07:54:32.844Z,3.64
2023-01-10T07:57:07.065Z,3.63
2023-01-10T07:59:50.899Z,3.41
2023-01-10T08:02:22.924Z,3.37
2023-01-10T08:05:12.199Z,2.87
2023-01-10T08:08:07.764Z,3.03
2023-01-10T08:10:45.294Z,3.32
2023-01-10T08:13:27.131Z,3.32
2023-01-10T08:16:29.122Z,3.28
2023-01-10T08:22:53.853Z,3.16
2023-01-10T08:25:20.938Z,3.34
2023-01-10T08:27:56.082Z,3.18
2023-01-10T08:37:41.981Z,3.50
2023-01-10T08:44:56.123Z,3.80
2023-01-10T08:47:41.970Z,3.89
2023-01-10T08:50:09.179Z,4.18
2023-01-10T08:52:35.649Z,3.60
2023-01-10T08:55:02.196Z,3.93
2023-01-10T08:57:31.170Z,4.12
2023-01-10T08:59:57.847Z,3.77
2023-01-10T09:02:24.478Z,4.19
2023-01-10T09:04:50.992Z,3.97
2023-01-10T09:07:17.549Z,4.18
2023-01-10T09:09:44.468Z,3.28
2023-01-10T09:12:29.797Z,4.05
2023-01-10T09:14:56.657Z,4.00
2023-01-10T09:17:23.365Z,3.69
2023-01-10T09:19:50.171Z,3.83
2023-01-10T09:22:20.217Z,4.36
2023-01-10T09:24:46.756Z,3.90
2023-01-10T09:27:13.260Z,3.99
2023-01-10T09:29:39.824Z,3.72
2023-01-10T09:32:07.480Z,3.96
2023-01-10T09:34:34.228Z,4.07
2023-01-10T09:37:00.737Z,3.79
2023-01-10T09:39:29.456Z,4.03
2023-01-10T09:41:59.143Z,4.25
2023-01-10T09:45:02.595Z,4.41
2023-01-10T09:47:39.627Z,5.02
2023-01-10T09:50:26.167Z,5.07
2023-01-10T09:53:13.831Z,5.26
2023-01-10T09:55:42.129Z,4.91
2023-01-10T09:58:16.604Z,5.75
2023-01-10T10:00:52.303Z,4.83
2023-01-10T10:03:56.809Z,4.50
2023-01-10T10:06:23.904Z,5.42
2023-01-10T10:08:52.143Z,4.92
2023-01-10T10:11:27.821Z,5.10
2023-01-10T10:13:57.284Z,4.58
2023-01-10T10:16:45.118Z,5.18
2023-01-10T10:19:40.677Z,5.09
2023-01-10T10:22:40.541Z,5.31
2023-01-10T10:25:55.765Z,4.71
2023-01-10T10:29:04.858Z,4.76
2023-01-10T10:31:53.282Z,5.05
2023-01-10T10:34:39.220Z,5.01
2023-01-10T10:37:15.457Z,4.71
2023-01-10T10:39:43.115Z,4.58
2023-01-10T10:42:15.039Z,5.04
2023-01-10T10:45:05.024Z,5.04
2023-01-10T10:47:35.383Z,4.61
2023-01-10T10:50:27.540Z,5.17
2023-01-10T10:52:54.394Z,4.97
2023-01-10T10:55:29.233Z,5.01
2023-01-10T10:58:00.470Z,5.06
2023-01-10T11:00:29.371Z,5.04
2023-01-10T11:03:00.292Z,4.85
2023-01-10T11:05:37.200Z,5.49
2023-01-10T11:08:13.244Z,5.31
2023-01-10T11:10:42.687Z,4.66
2023-01-10T11:13:16.911Z,4.61
2023-01-10T11:15:46.449Z,5.17
2023-01-10T11:18:14.973Z,4.69
2023-01-10T11:20:52.975Z,4.49
2023-01-10T11:23:26.096Z,4.52
2023-01-10T11:25:52.983Z,5.02
2023-01-10T11:28:25.071Z,4.81
2023-01-10T11:30:59.130Z,5.02
2023-01-10T11:33:40.178Z,5.61
2023-01-10T11:36:10.129Z,4.82
2023-01-10T11:38:36.775Z,4.83
2023-01-10T11:41:25.038Z,5.14
2023-01-10T11:43:51.660Z,5.27
2023-01-10T11:46:21.852Z,5.49
2023-01-10T11:49:26.510Z,5.25
2023-01-10T11:51:58.261Z,4.97
2023-01-10T11:54:29.880Z,4.86
2023-01-10T11:57:08.730Z,4.88
2023-01-10T11:59:36.100Z,4.93
2023-01-10T12:02:22.246Z,5.40
2023-01-10T12:04:50.881Z,5.43
2023-01-10T12:07:19.088Z,5.58
2023-01-10T12:10:02.273Z,5.36
2023-01-10T12:12:32.570Z,5.37
2023-01-10T12:15:20.287Z,4.87
2023-01-10T12:17:47.411Z,5.48
2023-01-10T12:20:15.732Z,5.82
2023-01-10T12:24:26.489Z,6.02
2023-01-10T12:44:01.831Z,5.26
2023-01-10T12:47:05.676Z,5.46
2023-01-10T12:49:45.745Z,4.76
2023-01-10T12:52:33.556Z,5.15
2023-01-10T12:55:18.125Z,4.93
2023-01-10T12:57:51.861Z,5.14
2023-01-10T13:00:47.846Z,5.04
2023-01-10T13:03:21.884Z,4.43
2023-01-10T13:05:57.969Z,4.67
2023-01-10T13:08:32.320Z,4.86
2023-01-10T13:11:01.203Z,4.60
2023-01-10T13:13:39.035Z,4.50
2023-01-10T13:16:24.465Z,4.64
2023-01-10T13:19:23.603Z,4.77
2023-01-10T13:22:00.597Z,4.84
2023-01-10T13:24:30.554Z,4.69
2023-01-10T13:27:51.113Z,5.03
2023-01-10T13:30:40.860Z,4.60
2023-01-10T13:33:41.338Z,4.81
2023-01-10T13:36:23.776Z,4.85
2023-01-10T13:38:52.344Z,4.96
2023-01-10T13:42:10.035Z,4.95
2023-01-10T13:47:52.558Z,5.09
2023-01-10T13:50:23.156Z,4.88
2023-01-10T13:53:34.725Z,4.44
2023-01-10T13:56:01.667Z,5.05
2023-01-10T13:59:00.858Z,5.01
2023-01-10T14:01:56.379Z,5.24
2023-01-10T14:04:47.762Z,4.69
2023-01-10T14:07:36.142Z,4.97
2023-01-10T14:10:09.423Z,4.86
2023-01-10T14:12:54.824Z,4.63
2023-01-10T14:15:30.173Z,4.69
2023-01-10T14:17:58.641Z,4.42
2023-01-10T14:20:25.867Z,5.19
2023-01-10T14:27:08.799Z,4.53
2023-01-10T14:29:49.144Z,4.67
2023-01-10T14:32:30.453Z,4.83
2023-01-10T14:45:21.054Z,4.75
2023-01-10T14:47:56.646Z,4.58
2023-01-10T14:50:31.163Z,4.86
2023-01-10T14:53:02.124Z,4.52
2023-01-10T14:55:29.540Z,4.84
2023-01-10T14:58:25.542Z,4.14
2023-01-10T15:01:19.767Z,4.54
2023-01-10T15:03:47.368Z,4.71
2023-01-10T15:06:50.677Z,4.69
2023-01-10T15:10:39.820Z,4.69
2023-01-10T15:13:39.557Z,5.00
2023-01-10T15:20:37.680Z,4.97
2023-01-10T15:43:20.573Z,4.15
2023-01-10T15:45:51.025Z,4.13
2023-01-10T15:48:34.598Z,4.14
2023-01-10T15:51:14.942Z,4.07
2023-01-10T15:53:53.032Z,4.53
2023-01-10T15:56:24.162Z,4.45
2023-01-10T15:58:50.718Z,4.57
2023-01-10T16:01:17.768Z,4.31
2023-01-10T16:03:48.668Z,4.41
2023-01-10T16:06:25.623Z,4.13
2023-01-10T16:08:58.584Z,4.32
2023-01-10T16:12:12.202Z,4.22
2023-01-10T16:14:38.719Z,3.85
2023-01-10T16:17:06.105Z,4.23
2023-01-10T16:19:33.072Z,4.08
2023-01-10T16:22:02.031Z,4.38
2023-01-10T16:24:32.796Z,4.00
2023-01-10T16:27:03.200Z,4.26
2023-01-10T16:29:29.965Z,4.20
2023-01-10T16:31:59.317Z,4.18
2023-01-10T16:34:28.778Z,4.32
2023-01-10T16:36:55.681Z,4.22
2023-01-10T16:39:23.718Z,4.22
2023-01-10T16:45:05.965Z,4.49
2023-01-10T16:47:32.874Z,4.44
2023-01-10T16:49:59.709Z,4.36
2023-01-10T16:52:26.317Z,4.27
2023-01-10T16:54:53.268Z,3.84
2023-01-10T16:57:20.078Z,3.86
2023-01-10T16:59:46.629Z,4.12
2023-01-10T17:02:18.059Z,4.05
2023-01-10T17:04:45.004Z,4.57
2023-01-10T17:07:13.001Z,4.43
2023-01-10T17:09:39.694Z,3.99
2023-01-10T17:12:10.783Z,3.98
2023-01-10T17:14:38.680Z,3.78
2023-01-10T17:17:05.478Z,3.97
2023-01-10T17:19:37.141Z,4.07
2023-01-10T17:22:03.659Z,4.27
2023-01-10T17:24:33.190Z,3.96
2023-01-10T17:26:59.777Z,4.08
2023-01-10T17:29:26.335Z,3.82
2023-01-10T17:32:22.103Z,4.12
2023-01-10T17:34:48.660Z,4.18
2023-01-10T17:37:16.307Z,4.21
2023-01-10T17:39:44.805Z,4.24
2023-01-10T17:42:12.516Z,4.10
2023-01-10T17:44:38.998Z,4.00
2023-01-10T17:47:06.432Z,3.90
2023-01-10T17:49:33.042Z,3.67
2023-01-10T17:51:59.529Z,3.91
2023-01-10T17:54:26.583Z,3.90
2023-01-10T17:56:53.261Z,4.06
2023-01-10T17:59:20.397Z,4.33
2023-01-10T18:01:47.273Z,4.05
2023-01-10T18:04:14.006Z,4.22
2023-01-10T18:06:40.605Z,4.21
2023-01-10T18:09:07.429Z,4.14
2023-01-10T18:11:34.024Z,4.24
2023-01-10T18:14:20.630Z,4.04
2023-01-10T18:16:47.367Z,4.32
2023-01-10T18:19:14.096Z,4.32
2023-01-10T18:21:40.696Z,3.94
2023-01-10T18:24:07.539Z,4.21
2023-01-10T18:26:34.209Z,3.99
2023-01-10T18:29:00.800Z,4.09
2023-01-10T18:31:29.461Z,3.95
2023-01-10T18:33:57.079Z,4.05
2023-01-10T18:36:27.638Z,3.96
2023-01-10T18:38:54.187Z,3.82
2023-01-10T18:41:25.265Z,4.09
2023-01-10T18:43:51.843Z,3.66
2023-01-10T18:46:21.251Z,3.72
2023-01-10T18:48:50.152Z,3.58
2023-01-10T18:51:18.945Z,3.66
2023-01-10T18:53:45.884Z,3.50
2023-01-10T18:56:12.696Z,4.02
2023-01-10T18:58:41.595Z,3.61
2023-01-10T19:01:10.642Z,3.70
2023-01-10T19:03:37.692Z,3.98
2023-01-10T19:06:05.940Z,3.83
2023-01-10T19:08:33.736Z,3.76
2023-01-10T19:11:16.488Z,3.80
2023-01-10T19:13:47.775Z,3.62
2023-01-10T19:16:16.704Z,4.00
2023-01-10T19:18:53.660Z,3.49
2023-01-10T19:21:21.488Z,3.80
2023-01-10T19:23:53.842Z,3.31
2023-01-10T19:26:21.382Z,3.73
2023-01-10T19:28:48.431Z,3.85
2023-01-10T19:31:25.653Z,3.93
2023-01-10T19:33:53.987Z,3.86
2023-01-10T19:36:24.657Z,3.49
2023-01-10T19:38:58.885Z,3.32
2023-01-10T19:41:27.078Z,3.34
2023-01-10T19:43:58.724Z,3.12
2023-01-10T19:46:39.096Z,3.19
2023-01-10T19:49:10.614Z,3.12
2023-01-10T19:51:39.623Z,3.56
2023-01-10T19:54:08.415Z,3.87
2023-01-10T19:56:35.803Z,3.26
2023-01-10T19:59:04.751Z,3.21
2023-01-10T20:01:32.008Z,3.55
2023-01-10T20:04:01.692Z,3.75
2023-01-10T20:06:30.974Z,3.43
2023-01-10T20:08:58.605Z,3.68
2023-01-10T20:11:37.679Z,3.60
2023-01-10T20:14:06.230Z,3.32
2023-01-10T20:16:33.323Z,2.99
2023-01-10T20:18:59.974Z,3.38
2023-01-10T20:21:26.635Z,3.46
2023-01-10T20:23:53.222Z,3.13
2023-01-10T20:26:22.982Z,2.93
2023-01-10T20:29:05.292Z,2.86
2023-01-10T20:31:32.396Z,3.18
2023-01-10T20:33:59.377Z,3.07
2023-01-10T20:36:27.253Z,3.18
2023-01-10T20:38:53.854Z,2.79
2023-01-10T20:41:21.964Z,3.45
2023-01-10T20:43:48.986Z,3.06
2023-01-10T20:46:19.565Z,3.03
2023-01-10T20:48:47.800Z,3.34
2023-01-10T20:51:20.651Z,3.36
2023-01-10T20:53:49.145Z,2.95
2023-01-10T20:56:18.048Z,3.38
2023-01-10T20:58:44.945Z,3.01
2023-01-10T21:01:24.834Z,3.45
2023-01-10T21:03:56.408Z,3.85
2023-01-10T21:06:23.290Z,3.27
2023-01-10T21:08:50.912Z,3.33
2023-01-10T21:11:19.313Z,2.92
2023-01-10T21:13:46.108Z,3.44
2023-01-10T21:16:19.394Z,3.12
2023-01-10T21:18:46.699Z,3.49
2023-01-10T21:21:15.996Z,3.08
2023-01-10T21:23:43.004Z,3.41
2023-01-10T21:26:14.589Z,3.14
2023-01-10T21:28:45.887Z,3.31
2023-01-10T21:31:20.844Z,3.45
2023-01-10T21:33:49.008Z,3.34
2023-01-10T21:36:15.548Z,3.46
2023-01-10T21:38:44.980Z,3.76
2023-01-10T21:41:40.043Z,3.33
2023-01-10T21:44:09.544Z,2.97
2023-01-10T21:46:36.782Z,3.06
2023-01-10T21:49:04.134Z,3.24
2023-01-10T21:51:30.591Z,3.19
2023-01-10T21:53:57.671Z,2.87
2023-01-10T21:56:24.212Z,2.97
2023-01-10T21:58:50.777Z,2.87
2023-01-10T22:01:17.369Z,3.00
2023-01-10T22:03:46.920Z,3.05
2023-01-10T22:06:13.635Z,3.47
2023-01-10T22:08:40.465Z,3.92
2023-01-10T22:11:08.135Z,3.05
2023-01-10T22:13:36.363Z,3.30
2023-01-10T22:16:03.332Z,3.07
2023-01-10T22:18:31.259Z,3.18
2023-01-10T22:20:58.646Z,3.01
2023-01-10T22:23:25.255Z,3.10
2023-01-10T22:26:03.535Z,3.57
2023-01-10T22:28:30.474Z,3.15
2023-01-10T22:30:57.180Z,3.14
2023-01-10T22:33:24.331Z,3.31
2023-01-10T22:35:50.805Z,2.93
2023-01-10T22:38:17.292Z,2.99
2023-01-10T22:40:43.770Z,3.07
2023-01-10T22:43:10.445Z,3.35
2023-01-10T22:45:40.733Z,3.19
2023-01-10T22:48:07.278Z,3.56
2023-01-10T22:50:33.790Z,3.26
2023-01-10T22:53:00.284Z,3.56
2023-01-10T22:55:26.854Z,3.24
2023-01-10T22:57:53.439Z,3.63
